createdAt,value
2018-07-20T00:01:55.181Z,3.80
2018-07-20T00:04:22.808Z,4.20
2018-07-20T00:06:50.505Z,3.73
2018-07-20T00:09:18.093Z,4.03
2018-07-20T00:11:45.715Z,3.53
2018-07-20T00:14:13.353Z,3.90
2018-07-20T00:16:41.088Z,4.17
2018-07-20T00:19:08.653Z,4.40
2018-07-20T00:21:36.256Z,4.17
2018-07-20T00:24:03.880Z,4.40
2018-07-20T00:26:31.517Z,4.03
2018-07-20T00:28:59.163Z,4.07
2018-07-20T00:31:26.793Z,4.13
2018-07-20T00:33:54.281Z,4.60
2018-07-20T00:36:21.897Z,4.07
2018-07-20T00:38:49.499Z,3.90
2018-07-20T00:41:17.104Z,5.37
2018-07-20T00:43:44.715Z,4.70
2018-07-20T00:46:12.363Z,3.83
2018-07-20T00:48:40.012Z,4.10
2018-07-20T00:51:07.628Z,4.20
2018-07-20T00:53:35.252Z,4.33
2018-07-20T00:56:02.916Z,4.47
2018-07-20T00:58:30.550Z,4.33
2018-07-20T01:00:58.241Z,5.57
2018-07-20T01:03:25.852Z,6.20
2018-07-20T01:05:53.473Z,7.10
2018-07-20T01:08:21.070Z,5.53
2018-07-20T01:10:48.709Z,4.87
2018-07-20T01:13:16.335Z,4.60
2018-07-20T01:15:43.937Z,4.23
2018-07-20T01:18:11.564Z,4.70
2018-07-20T01:20:39.236Z,4.73
2018-07-20T01:23:06.871Z,4.70
2018-07-20T01:25:34.494Z,4.20
2018-07-20T01:28:02.090Z,4.30
2018-07-20T01:30:29.710Z,4.83
2018-07-20T01:32:57.345Z,4.67
2018-07-20T01:35:24.971Z,5.20
2018-07-20T01:37:52.564Z,4.70
2018-07-20T01:40:20.177Z,5.13
2018-07-20T01:42:47.809Z,5.53
2018-07-20T01:45:15.450Z,4.87
2018-07-20T01:47:43.036Z,5.27
2018-07-20T01:50:10.658Z,5.37
2018-07-20T01:52:38.257Z,4.83
2018-07-20T01:55:05.930Z,4.57
2018-07-20T01:57:33.463Z,5.30
2018-07-20T02:00:01.110Z,5.07
2018-07-20T02:02:28.769Z,5.50
2018-07-20T02:04:56.415Z,5.60
2018-07-20T02:07:24.173Z,5.30
2018-07-20T02:09:51.773Z,5.50
2018-07-20T02:12:19.472Z,5.33
2018-07-20T02:14:47.056Z,5.27
2018-07-20T02:17:14.650Z,5.43
2018-07-20T02:19:42.300Z,5.87
2018-07-20T02:22:09.904Z,5.63
2018-07-20T02:24:37.542Z,5.67
2018-07-20T02:27:05.171Z,5.87
2018-07-20T02:29:32.905Z,4.93
2018-07-20T02:32:00.485Z,5.67
2018-07-20T02:34:28.087Z,5.70
2018-07-20T02:36:55.723Z,6.13
2018-07-20T02:39:23.354Z,6.10
2018-07-20T02:41:50.968Z,6.27
2018-07-20T02:44:18.621Z,5.97
2018-07-20T02:46:46.248Z,5.77
2018-07-20T02:49:13.844Z,6.20
2018-07-20T02:51:41.496Z,6.13
2018-07-20T02:54:09.100Z,6.03
2018-07-20T02:59:11.177Z,6.00
2018-07-20T03:01:38.784Z,6.67
2018-07-20T03:04:06.425Z,6.57
2018-07-20T03:06:34.016Z,7.27
2018-07-20T03:09:01.679Z,6.90
2018-07-20T03:11:29.276Z,5.97
2018-07-20T03:13:56.919Z,7.33
2018-07-20T03:16:24.549Z,7.30
2018-07-20T03:18:52.177Z,6.27
2018-07-20T03:21:19.788Z,6.93
2018-07-20T03:23:47.441Z,6.60
2018-07-20T03:26:15.066Z,6.73
2018-07-20T03:28:42.720Z,7.30
2018-07-20T03:31:10.297Z,7.40
2018-07-20T03:33:37.897Z,8.07
2018-07-20T03:36:05.554Z,7.90
2018-07-20T03:38:33.155Z,7.43
2018-07-20T03:41:00.765Z,7.97
2018-07-20T03:43:28.375Z,7.53
2018-07-20T03:45:55.982Z,7.83
2018-07-20T03:48:23.588Z,8.10
2018-07-20T03:50:51.219Z,6.93
2018-07-20T03:53:18.823Z,8.03
2018-07-20T03:55:46.477Z,9.13
2018-07-20T03:58:14.106Z,7.90
2018-07-20T04:00:41.773Z,8.23
2018-07-20T04:03:09.397Z,7.93
2018-07-20T04:05:37.052Z,7.57
2018-07-20T04:08:04.729Z,7.83
2018-07-20T04:10:32.372Z,9.03
2018-07-20T04:12:59.996Z,9.03
2018-07-20T04:15:27.617Z,8.23
2018-07-20T04:17:55.259Z,8.13
2018-07-20T04:20:22.883Z,8.83
2018-07-20T04:22:50.520Z,9.13
2018-07-20T04:25:18.142Z,9.03
2018-07-20T04:27:45.888Z,7.83
2018-07-20T04:30:14.274Z,7.87
2018-07-20T04:32:42.406Z,7.93
2018-07-20T04:35:10.904Z,8.03
2018-07-20T04:37:38.567Z,9.70
2018-07-20T04:40:06.561Z,9.27
2018-07-20T04:42:34.707Z,7.93
2018-07-20T04:45:02.389Z,8.97
2018-07-20T04:47:30.008Z,9.17
2018-07-20T04:49:57.693Z,11.27
2018-07-20T04:52:25.298Z,9.90
2018-07-20T04:54:52.962Z,10.17
2018-07-20T04:57:20.616Z,9.07
2018-07-20T04:59:48.325Z,9.97
2018-07-20T05:02:15.972Z,9.23
2018-07-20T05:04:43.569Z,8.97
2018-07-20T05:07:11.194Z,8.77
2018-07-20T05:09:38.798Z,9.20
2018-07-20T05:12:06.463Z,9.37
2018-07-20T05:14:34.080Z,8.47
2018-07-20T05:17:01.731Z,9.03
2018-07-20T05:19:29.270Z,8.30
2018-07-20T05:21:56.965Z,8.20
2018-07-20T05:24:24.622Z,9.43
2018-07-20T05:26:52.276Z,10.20
2018-07-20T05:29:19.908Z,9.57
2018-07-20T05:31:47.541Z,10.20
2018-07-20T05:34:15.162Z,9.23
2018-07-20T05:36:42.820Z,9.70
2018-07-20T05:39:11.432Z,9.93
2018-07-20T05:41:39.187Z,10.53
2018-07-20T05:44:07.009Z,9.60
2018-07-20T05:46:34.905Z,10.27
2018-07-20T05:49:02.560Z,10.70
2018-07-20T05:51:30.185Z,12.23
2018-07-20T05:53:58.009Z,11.70
2018-07-20T05:56:25.752Z,12.47
2018-07-20T05:58:53.367Z,13.13
2018-07-20T06:01:21.167Z,13.83
2018-07-20T06:03:48.800Z,14.40
2018-07-20T06:06:16.324Z,13.53
2018-07-20T06:08:44.110Z,12.90
2018-07-20T06:11:11.742Z,13.93
2018-07-20T06:13:39.361Z,14.73
2018-07-20T06:16:07.164Z,14.47
2018-07-20T06:18:34.937Z,13.83
2018-07-20T06:21:02.602Z,14.03
2018-07-20T06:23:30.260Z,14.53
2018-07-20T06:25:57.922Z,12.40
2018-07-20T06:28:25.554Z,12.20
2018-07-20T06:30:53.244Z,12.80
2018-07-20T06:33:20.866Z,11.40
2018-07-20T06:35:48.500Z,11.33
2018-07-20T06:38:16.130Z,11.97
2018-07-20T06:40:43.827Z,12.27
2018-07-20T06:43:11.410Z,10.93
2018-07-20T06:45:39.089Z,10.40
2018-07-20T06:48:07.057Z,11.63
2018-07-20T06:50:34.697Z,10.33
2018-07-20T06:53:02.375Z,10.57
2018-07-20T06:55:30.018Z,11.73
2018-07-20T06:57:57.664Z,12.33
2018-07-20T07:00:25.328Z,13.20
2018-07-20T07:02:52.931Z,14.00
2018-07-20T07:05:20.592Z,13.93
2018-07-20T07:07:48.221Z,14.00
2018-07-20T07:10:15.858Z,12.73
2018-07-20T07:12:43.567Z,12.90
2018-07-20T07:15:11.234Z,11.63
2018-07-20T07:17:38.903Z,12.47
2018-07-20T07:20:06.542Z,12.30
2018-07-20T07:22:34.256Z,12.03
2018-07-20T07:25:01.865Z,10.73
2018-07-20T07:27:29.572Z,10.87
2018-07-20T07:29:57.218Z,10.57
2018-07-20T07:32:24.897Z,10.03
2018-07-20T07:34:52.524Z,11.20
2018-07-20T07:37:20.152Z,10.23
2018-07-20T07:39:47.844Z,10.70
2018-07-20T07:42:15.689Z,9.73
2018-07-20T07:44:43.191Z,10.93
2018-07-20T07:47:11.141Z,11.12
2018-07-20T07:49:38.829Z,11.10
2018-07-20T07:52:06.882Z,11.93
2018-07-20T07:54:34.569Z,11.03
2018-07-20T07:57:02.225Z,12.45
2018-07-20T07:59:29.977Z,13.80
2018-07-20T08:01:57.604Z,12.78
2018-07-20T08:04:25.225Z,15.48
2018-07-20T08:06:52.856Z,15.45
2018-07-20T08:09:20.499Z,16.85
2018-07-20T08:11:48.178Z,15.40
2018-07-20T08:15:19.124Z,17.17
2018-07-20T08:17:46.768Z,16.97
2018-07-20T08:20:14.452Z,17.20
2018-07-20T08:22:42.093Z,17.05
2018-07-20T08:25:09.825Z,17.05
2018-07-20T08:27:37.459Z,17.55
2018-07-20T08:30:05.140Z,18.27
2018-07-20T08:32:32.693Z,17.62
2018-07-20T08:35:00.304Z,15.48
2018-07-20T08:37:27.890Z,18.25
2018-07-20T08:39:55.523Z,16.45
2018-07-20T08:42:23.197Z,15.80
2018-07-20T08:44:50.834Z,17.23
2018-07-20T08:47:18.457Z,15.93
2018-07-20T08:49:46.163Z,15.32
2018-07-20T08:52:13.838Z,17.35
2018-07-20T08:54:41.452Z,15.08
2018-07-20T08:57:09.200Z,11.48
2018-07-20T08:59:37.169Z,12.15
2018-07-20T09:02:04.838Z,12.10
2018-07-20T09:04:32.478Z,13.20
2018-07-20T09:07:00.159Z,12.58
2018-07-20T09:09:27.765Z,11.45
2018-07-20T09:11:55.435Z,10.20
2018-07-20T09:14:23.120Z,11.85
2018-07-20T09:16:50.753Z,9.68
2018-07-20T09:19:18.378Z,8.95
2018-07-20T09:21:46.037Z,9.38
2018-07-20T09:24:13.553Z,9.43
2018-07-20T09:26:41.156Z,8.45
2018-07-20T09:29:08.830Z,8.28
2018-07-20T09:31:36.483Z,8.98
2018-07-20T09:34:04.190Z,9.40
2018-07-20T09:36:31.792Z,11.18
2018-07-20T09:38:59.391Z,11.53
2018-07-20T09:41:27.046Z,10.15
2018-07-20T09:43:54.726Z,9.98
2018-07-20T09:46:22.342Z,10.25
2018-07-20T09:48:50.059Z,9.70
2018-07-20T09:51:17.654Z,10.72
2018-07-20T09:53:45.308Z,10.90
2018-07-20T09:56:13.078Z,10.98
2018-07-20T09:58:40.592Z,12.60
2018-07-20T10:01:08.296Z,11.20
2018-07-20T10:03:35.951Z,10.23
2018-07-20T10:06:03.736Z,9.30
2018-07-20T10:08:31.388Z,8.88
2018-07-20T10:10:59.063Z,9.78
2018-07-20T10:13:26.731Z,9.68
2018-07-20T10:15:54.369Z,10.28
2018-07-20T10:18:22.015Z,10.18
2018-07-20T10:20:49.655Z,10.32
2018-07-20T10:23:17.293Z,9.73
2018-07-20T10:25:44.992Z,10.43
2018-07-20T10:28:12.570Z,10.98
2018-07-20T10:30:40.243Z,10.60
2018-07-20T10:33:07.888Z,9.68
2018-07-20T10:35:35.476Z,9.35
2018-07-20T10:38:03.230Z,9.03
2018-07-20T10:40:30.944Z,11.85
2018-07-20T10:42:58.808Z,10.30
2018-07-20T10:45:26.716Z,12.25
2018-07-20T10:47:54.401Z,10.15
2018-07-20T10:50:22.053Z,10.85
2018-07-20T10:52:49.687Z,11.65
2018-07-20T10:55:17.937Z,10.63
2018-07-20T10:57:45.804Z,11.68
2018-07-20T11:00:13.469Z,10.75
2018-07-20T11:02:41.093Z,9.15
2018-07-20T11:05:08.833Z,9.03
2018-07-20T11:07:36.492Z,9.55
2018-07-20T11:10:04.356Z,9.25
2018-07-20T11:12:31.911Z,8.60
2018-07-20T11:14:59.556Z,9.70
2018-07-20T11:17:27.165Z,8.13
2018-07-20T11:19:54.788Z,9.45
2018-07-20T11:22:22.436Z,8.95
2018-07-20T11:24:50.067Z,9.30
2018-07-20T11:27:19.474Z,8.93
2018-07-20T11:29:47.175Z,9.90
2018-07-20T11:32:14.957Z,11.40
2018-07-20T11:34:42.673Z,11.22
2018-07-20T11:37:10.305Z,9.25
2018-07-20T11:39:37.979Z,9.90
2018-07-20T11:42:05.632Z,10.45
2018-07-20T11:44:33.267Z,9.18
2018-07-20T11:47:00.877Z,9.73
2018-07-20T11:49:28.567Z,7.72
2018-07-20T11:51:56.200Z,10.40
2018-07-20T11:54:23.801Z,9.23
2018-07-20T11:56:51.457Z,8.23
2018-07-20T11:59:19.046Z,8.35
2018-07-20T12:01:46.761Z,8.80
2018-07-20T12:04:14.400Z,8.23
2018-07-20T12:06:42.040Z,8.18
2018-07-20T12:09:11.049Z,7.50
2018-07-20T12:11:38.877Z,8.78
2018-07-20T12:14:06.557Z,8.33
2018-07-20T12:16:34.221Z,7.60
2018-07-20T12:19:01.907Z,7.30
2018-07-20T12:21:29.553Z,7.42
2018-07-20T12:23:57.221Z,6.90
2018-07-20T12:26:24.868Z,7.17
2018-07-20T12:28:52.503Z,7.08
2018-07-20T12:31:20.142Z,8.08
2018-07-20T12:33:47.805Z,5.78
2018-07-20T12:36:15.460Z,8.20
2018-07-20T12:38:43.117Z,8.35
2018-07-20T12:41:11.047Z,6.17
2018-07-20T12:43:38.668Z,6.65
2018-07-20T12:46:06.344Z,7.65
2018-07-20T12:48:33.965Z,7.60
2018-07-20T12:51:01.653Z,6.70
2018-07-20T12:53:29.360Z,6.87
2018-07-20T12:55:57.004Z,7.15
2018-07-20T12:58:24.725Z,8.75
2018-07-20T13:00:52.319Z,7.55
2018-07-20T13:03:19.951Z,6.30
2018-07-20T13:05:47.611Z,6.60
2018-07-20T13:08:15.260Z,5.67
2018-07-20T13:10:42.890Z,6.37
2018-07-20T13:13:10.518Z,6.30
2018-07-20T13:15:38.177Z,9.95
2018-07-20T13:18:05.990Z,6.17
2018-07-20T13:20:33.716Z,5.30
2018-07-20T13:23:01.412Z,5.12
2018-07-20T13:25:29.474Z,5.60
2018-07-20T13:27:57.139Z,5.10
2018-07-20T13:30:24.809Z,5.12
2018-07-20T13:32:52.487Z,6.65
2018-07-20T13:35:20.216Z,6.37
2018-07-20T13:37:47.872Z,5.87
2018-07-20T13:40:15.667Z,5.58
2018-07-20T13:42:43.301Z,6.12
2018-07-20T13:45:10.989Z,6.17
2018-07-20T13:47:38.605Z,5.35
2018-07-20T13:50:06.493Z,6.17
2018-07-20T13:52:34.395Z,5.60
2018-07-20T13:55:02.009Z,4.72
2018-07-20T13:57:29.717Z,5.05
2018-07-20T13:59:57.381Z,5.17
2018-07-20T14:02:25.020Z,5.40
2018-07-20T14:04:53.704Z,5.40
2018-07-20T14:07:28.189Z,5.17
2018-07-20T14:09:55.852Z,4.65
2018-07-20T14:12:23.577Z,5.65
2018-07-20T14:14:51.273Z,5.20
2018-07-20T14:17:18.908Z,4.90
2018-07-20T14:19:46.585Z,4.62
2018-07-20T14:22:14.219Z,5.50
2018-07-20T14:24:41.855Z,5.20
2018-07-20T14:27:09.483Z,5.58
2018-07-20T14:29:37.140Z,5.42
2018-07-20T14:32:04.946Z,6.17
2018-07-20T14:34:32.628Z,5.92
2018-07-20T14:37:00.324Z,5.47
2018-07-20T14:39:27.958Z,6.85
2018-07-20T14:41:55.738Z,5.42
2018-07-20T14:44:23.377Z,5.90
2018-07-20T14:46:51.039Z,6.40
2018-07-20T14:49:18.704Z,5.28
2018-07-20T14:51:46.337Z,5.25
2018-07-20T14:54:13.968Z,5.10
2018-07-20T14:56:41.580Z,5.37
2018-07-20T14:59:09.276Z,6.00
2018-07-20T15:01:36.956Z,5.47
2018-07-20T15:04:04.642Z,5.22
2018-07-20T15:06:32.298Z,7.90
2018-07-20T15:08:59.915Z,5.90
2018-07-20T15:11:27.614Z,5.95
2018-07-20T15:13:55.428Z,6.17
2018-07-20T15:16:23.108Z,4.87
2018-07-20T15:18:50.817Z,5.65
2018-07-20T15:21:18.525Z,5.30
2018-07-20T15:23:46.166Z,5.53
2018-07-20T15:26:13.822Z,6.70
2018-07-20T15:28:41.487Z,6.15
2018-07-20T15:31:09.231Z,5.37
2018-07-20T15:33:36.906Z,6.85
2018-07-20T15:36:04.910Z,6.72
2018-07-20T15:38:32.517Z,6.37
2018-07-20T15:41:00.190Z,6.92
2018-07-20T15:43:27.962Z,5.95
2018-07-20T15:46:05.770Z,5.28
2018-07-20T15:48:23.323Z,6.33
2018-07-20T15:50:50.978Z,7.17
2018-07-20T15:53:45.833Z,6.87
2018-07-20T15:55:46.344Z,6.45
2018-07-20T15:58:13.990Z,6.53
2018-07-20T16:00:41.667Z,6.65
2018-07-20T16:03:09.365Z,6.75
2018-07-20T16:05:37.089Z,6.70
2018-07-20T16:08:04.725Z,6.22
2018-07-20T16:10:32.372Z,6.10
2018-07-20T16:13:00.070Z,6.40
2018-07-20T16:15:27.844Z,7.22
2018-07-20T16:17:55.589Z,6.45
2018-07-20T16:20:23.252Z,6.70
2018-07-20T16:22:51.072Z,7.30
2018-07-20T16:25:18.695Z,7.22
2018-07-20T16:27:46.337Z,6.47
2018-07-20T16:30:14.019Z,6.72
2018-07-20T16:32:41.709Z,6.40
2018-07-20T16:35:09.363Z,7.17
2018-07-20T16:37:37.008Z,6.70
2018-07-20T16:40:04.793Z,7.10
2018-07-20T16:42:32.372Z,6.58
2018-07-20T16:45:00.127Z,7.17
2018-07-20T16:47:28.678Z,7.28
2018-07-20T16:49:56.328Z,6.97
2018-07-20T16:52:23.974Z,6.72
2018-07-20T16:54:51.670Z,7.47
2018-07-20T16:57:19.321Z,6.62
2018-07-20T16:59:46.987Z,7.90
2018-07-20T17:02:14.702Z,6.53
2018-07-20T17:04:42.367Z,6.78
2018-07-20T17:07:09.980Z,6.95
2018-07-20T17:09:37.628Z,6.87
2018-07-20T17:12:05.652Z,6.87
2018-07-20T17:14:33.291Z,6.97
2018-07-20T17:17:00.956Z,6.72
2018-07-20T17:19:28.704Z,7.47
2018-07-20T17:21:56.329Z,6.85
2018-07-20T17:24:23.989Z,7.50
2018-07-20T17:26:51.644Z,7.47
2018-07-20T17:29:19.273Z,7.22
2018-07-20T17:31:46.942Z,6.67
2018-07-20T17:34:14.599Z,6.87
2018-07-20T17:36:42.300Z,6.20
2018-07-20T17:39:11.532Z,7.10
2018-07-20T17:41:39.241Z,6.87
2018-07-20T17:44:07.720Z,6.87
2018-07-20T17:46:35.443Z,6.47
2018-07-20T17:49:03.256Z,6.97
2018-07-20T17:51:30.881Z,6.97
2018-07-20T17:53:58.572Z,6.50
2018-07-20T17:56:27.212Z,6.83
2018-07-20T17:58:54.805Z,5.90
2018-07-20T18:01:22.551Z,6.70
2018-07-20T18:03:50.171Z,6.57
2018-07-20T18:06:17.835Z,6.07
2018-07-20T18:08:45.514Z,6.00
2018-07-20T18:11:13.168Z,5.97
2018-07-20T18:13:40.877Z,5.50
2018-07-20T18:16:08.506Z,6.33
2018-07-20T18:18:36.113Z,5.83
2018-07-20T18:21:03.780Z,6.07
2018-07-20T18:23:31.405Z,5.77
2018-07-20T18:25:59.119Z,6.13
2018-07-20T18:28:26.996Z,5.97
2018-07-20T18:30:54.678Z,5.73
2018-07-20T18:33:22.478Z,6.23
2018-07-20T18:35:50.154Z,5.30
2018-07-20T18:38:17.848Z,5.97
2018-07-20T18:40:45.548Z,5.73
2018-07-20T18:43:13.212Z,5.20
2018-07-20T18:45:40.996Z,6.07
2018-07-20T18:48:08.792Z,4.90
2018-07-20T18:50:36.343Z,4.97
2018-07-20T18:53:04.058Z,4.90
2018-07-20T18:55:31.635Z,4.73
2018-07-20T18:57:59.360Z,4.87
2018-07-20T19:00:27.144Z,4.97
2018-07-20T19:02:54.864Z,5.20
2018-07-20T19:05:22.879Z,5.27
2018-07-20T19:07:50.654Z,4.43
2018-07-20T19:10:18.376Z,4.57
2018-07-20T19:12:46.453Z,5.00
2018-07-20T19:15:14.106Z,5.00
2018-07-20T19:17:42.000Z,4.43
2018-07-20T19:20:09.763Z,4.27
2018-07-20T19:22:37.395Z,4.63
2018-07-20T19:25:05.176Z,4.10
2018-07-20T19:27:32.871Z,4.57
2018-07-20T19:30:00.508Z,4.53
2018-07-20T19:32:28.209Z,4.17
2018-07-20T19:34:55.861Z,4.93
2018-07-20T19:37:23.574Z,4.63
2018-07-20T19:39:51.329Z,4.57
2018-07-20T19:42:19.188Z,4.83
2018-07-20T19:44:46.879Z,4.03
2018-07-20T19:47:14.529Z,4.03
2018-07-20T19:49:42.309Z,3.97
2018-07-20T19:52:09.939Z,4.40
2018-07-20T19:54:37.577Z,4.27
2018-07-20T19:57:05.596Z,3.93
2018-07-20T19:59:33.480Z,4.33
2018-07-20T20:02:01.133Z,4.27
2018-07-20T20:04:29.070Z,4.03
2018-07-20T20:06:57.004Z,3.63
2018-07-20T20:09:24.664Z,3.90
2018-07-20T20:11:52.336Z,4.23
2018-07-20T20:14:20.047Z,4.20
2018-07-20T20:16:47.733Z,4.07
2018-07-20T20:19:15.369Z,3.77
2018-07-20T20:21:43.051Z,4.30
2018-07-20T20:24:10.692Z,3.73
2018-07-20T20:26:38.459Z,4.60
2018-07-20T20:29:06.180Z,4.00
2018-07-20T20:31:34.079Z,4.43
2018-07-20T20:34:01.777Z,4.40
2018-07-20T20:36:29.516Z,5.07
2018-07-20T20:38:57.155Z,5.33
2018-07-20T20:41:24.893Z,5.87
2018-07-20T20:43:52.547Z,6.00
2018-07-20T20:46:20.173Z,6.33
2018-07-20T20:48:47.947Z,6.20
2018-07-20T20:51:15.572Z,7.10
2018-07-20T20:53:43.290Z,6.63
2018-07-20T20:56:10.853Z,7.30
2018-07-20T20:58:38.475Z,6.00
2018-07-20T21:01:06.279Z,7.17
2018-07-20T21:03:40.400Z,6.03
2018-07-20T21:06:08.099Z,6.00
2018-07-20T21:08:37.723Z,6.40
2018-07-20T21:11:05.581Z,6.33
2018-07-20T21:13:33.248Z,5.80
2018-07-20T21:16:00.919Z,6.07
2018-07-20T21:18:28.668Z,6.40
2018-07-20T21:20:56.280Z,5.60
2018-07-20T21:23:23.938Z,6.27
2018-07-20T21:25:51.662Z,5.60
2018-07-20T21:28:19.331Z,5.80
2018-07-20T21:30:46.995Z,6.60
2018-07-20T21:33:14.620Z,7.33
2018-07-20T21:35:42.285Z,7.50
2018-07-20T21:38:09.944Z,7.07
2018-07-20T21:40:37.752Z,6.70
2018-07-20T21:43:05.589Z,6.37
2018-07-20T21:45:33.372Z,5.67
2018-07-20T21:48:01.073Z,5.60
2018-07-20T21:50:28.878Z,4.93
2018-07-20T21:52:56.686Z,5.00
2018-07-20T21:55:24.444Z,5.63
2018-07-20T21:57:52.152Z,4.97
2018-07-20T22:00:20.064Z,5.40
2018-07-20T22:02:48.586Z,5.20
2018-07-20T22:05:16.359Z,6.00
2018-07-20T22:07:44.129Z,6.07
2018-07-20T22:10:11.773Z,5.40
2018-07-20T22:12:39.483Z,5.77
2018-07-20T22:15:08.113Z,6.23
2018-07-20T22:17:35.757Z,5.70
2018-07-20T22:20:04.513Z,6.70
2018-07-20T22:22:32.649Z,6.57
2018-07-20T22:25:00.270Z,6.43
2018-07-20T22:27:27.902Z,5.77
2018-07-20T22:29:55.566Z,5.90
2018-07-20T22:32:23.186Z,5.70
2018-07-20T22:34:50.869Z,5.70
2018-07-20T22:37:18.517Z,5.70
2018-07-20T22:39:46.185Z,5.57
2018-07-20T22:42:13.801Z,5.03
2018-07-20T22:44:41.819Z,5.50
2018-07-20T22:47:09.431Z,5.70
2018-07-20T22:49:37.021Z,5.77
2018-07-20T22:52:04.732Z,6.30
2018-07-20T22:54:32.340Z,6.70
2018-07-20T22:57:00.169Z,6.40
2018-07-20T22:59:27.827Z,5.90
2018-07-20T23:01:55.519Z,6.10
2018-07-20T23:04:23.205Z,6.47
2018-07-20T23:06:50.840Z,6.23
2018-07-20T23:09:18.469Z,6.67
2018-07-20T23:11:46.144Z,6.23
2018-07-20T23:14:13.759Z,7.17
2018-07-20T23:16:41.389Z,7.00
2018-07-20T23:19:09.151Z,7.13
2018-07-20T23:21:36.811Z,7.00
2018-07-20T23:24:04.523Z,6.33
2018-07-20T23:26:32.145Z,7.13
2018-07-20T23:28:59.835Z,7.20
2018-07-20T23:31:27.455Z,6.57
2018-07-20T23:33:55.137Z,7.30
2018-07-20T23:36:22.825Z,7.37
2018-07-20T23:38:50.515Z,8.20
2018-07-20T23:41:18.195Z,7.97
2018-07-20T23:43:45.814Z,9.00
2018-07-20T23:46:13.453Z,7.47
2018-07-20T23:48:41.125Z,8.17
2018-07-20T23:51:08.764Z,8.70
2018-07-20T23:53:36.428Z,8.73
2018-07-20T23:56:04.427Z,9.43
2018-07-20T23:58:32.055Z,9.33
